createdAt,value
2023-05-10T00:00:00.114Z,96154.16
2023-05-10T00:02:05.100Z,96151.69
2023-05-10T00:04:10.067Z,96153.06
2023-05-10T00:06:14.928Z,96160.50
2023-05-10T00:08:19.764Z,96150.06
2023-05-10T00:10:24.681Z,96157.53
2023-05-10T00:12:29.567Z,96155.53
2023-05-10T00:14:34.709Z,96161.53
2023-05-10T00:16:42.212Z,96159.09
2023-05-10T00:18:47.036Z,96160.84
2023-05-10T00:20:52.190Z,96166.09
2023-05-10T00:22:57.087Z,96166.28
2023-05-10T00:25:02.424Z,96171.53
2023-05-10T00:27:08.124Z,96171.06
2023-05-10T00:29:13.096Z,96169.53
2023-05-10T00:31:18.447Z,96171.41
2023-05-10T00:33:26.061Z,96171.41
2023-05-10T00:35:31.088Z,96171.06
2023-05-10T00:37:35.954Z,96166.53
2023-05-10T00:39:40.797Z,96174.53
2023-05-10T00:41:45.569Z,96168.41
2023-05-10T00:43:50.490Z,96175.63
2023-05-10T00:45:56.448Z,96167.84
2023-05-10T00:48:01.479Z,96168.97
2023-05-10T00:50:10.505Z,96158.31
2023-05-10T00:52:15.308Z,96165.97
2023-05-10T00:54:20.293Z,96169.53
2023-05-10T00:56:25.849Z,96169.19
2023-05-10T00:58:32.244Z,96163.53
2023-05-10T01:00:38.567Z,96159.72
2023-05-10T01:02:44.811Z,96155.53
2023-05-10T01:04:49.989Z,96157.41
2023-05-10T01:06:57.695Z,96153.97
2023-05-10T01:09:02.538Z,96155.88
2023-05-10T01:11:07.510Z,96159.63
2023-05-10T01:13:13.736Z,96151.19
2023-05-10T01:15:20.468Z,96153.06
2023-05-10T01:17:26.875Z,96143.84
2023-05-10T01:19:36.110Z,96154.06
2023-05-10T01:21:46.910Z,96154.41
2023-05-10T01:24:23.298Z,96147.84
2023-05-10T01:26:57.322Z,96144.75
2023-05-10T01:29:31.371Z,96147.41
2023-05-10T01:32:10.310Z,96145.41
2023-05-10T01:34:23.262Z,96142.75
2023-05-10T01:36:35.078Z,96145.06
2023-05-10T01:38:47.377Z,96143.16
2023-05-10T01:41:02.736Z,96147.28
2023-05-10T01:43:12.584Z,96146.50
2023-05-10T01:45:24.002Z,96145.75
2023-05-10T01:47:35.483Z,96147.94
2023-05-10T01:49:47.537Z,96148.75
2023-05-10T01:51:57.109Z,96146.50
2023-05-10T01:54:06.073Z,96144.19
2023-05-10T01:56:12.235Z,96145.28
2023-05-10T01:58:22.750Z,96144.50
2023-05-10T02:00:28.440Z,96142.59
2023-05-10T02:02:36.718Z,96145.75
2023-05-10T02:04:45.629Z,96146.50
2023-05-10T02:06:51.852Z,96144.94
2023-05-10T02:08:59.274Z,96147.19
2023-05-10T02:11:05.417Z,96145.16
2023-05-10T02:13:12.788Z,96147.34
2023-05-10T02:15:22.763Z,96148.34
2023-05-10T02:17:29.879Z,96147.56
2023-05-10T02:19:37.973Z,96149.00
2023-05-10T02:21:46.793Z,96147.34
2023-05-10T02:23:56.171Z,96145.34
2023-05-10T02:26:03.053Z,96143.78
2023-05-10T02:28:10.503Z,96144.09
2023-05-10T02:30:16.868Z,96144.09
2023-05-10T02:32:24.270Z,96144.75
2023-05-10T02:34:31.331Z,96143.88
2023-05-10T02:36:37.426Z,96150.94
2023-05-10T02:38:47.297Z,96137.63
2023-05-10T02:40:52.907Z,96146.09
2023-05-10T02:43:00.439Z,96143.09
2023-05-10T02:45:09.281Z,96145.75
2023-05-10T02:47:14.250Z,96139.97
2023-05-10T02:49:19.711Z,96143.75
2023-05-10T02:51:29.270Z,96147.09
2023-05-10T02:53:37.300Z,96146.28
2023-05-10T02:55:45.539Z,96144.72
2023-05-10T02:57:57.393Z,96152.72
2023-05-10T03:00:02.552Z,96152.09
2023-05-10T03:02:08.067Z,96142.19
2023-05-10T03:04:13.142Z,96155.19
2023-05-10T03:06:18.031Z,96152.84
2023-05-10T03:08:23.020Z,96150.94
2023-05-10T03:10:33.646Z,96155.94
2023-05-10T03:12:56.926Z,96154.75
2023-05-10T03:15:07.473Z,96148.94
2023-05-10T03:17:27.677Z,96158.69
2023-05-10T03:19:41.151Z,96158.13
2023-05-10T03:21:53.589Z,96155.47
2023-05-10T03:24:03.638Z,96166.59
2023-05-10T03:26:09.856Z,96161.38
2023-05-10T03:28:19.603Z,96167.50
2023-05-10T03:30:26.224Z,96168.41
2023-05-10T03:32:33.764Z,96165.75
2023-05-10T03:34:45.570Z,96163.06
2023-05-10T03:36:50.578Z,96175.28
2023-05-10T03:38:55.922Z,96162.75
2023-05-10T03:41:00.906Z,96172.28
2023-05-10T03:43:05.867Z,96177.59
2023-05-10T03:45:14.494Z,96168.50
2023-05-10T03:47:19.405Z,96161.63
2023-05-10T03:49:24.132Z,96169.59
2023-05-10T03:51:29.283Z,96168.06
2023-05-10T03:53:34.102Z,96165.75
2023-05-10T03:55:39.054Z,96175.16
2023-05-10T03:57:43.880Z,96173.25
2023-05-10T03:59:48.705Z,96182.34
2023-05-10T04:01:56.139Z,96177.34
2023-05-10T04:04:01.405Z,96174.59
2023-05-10T04:06:06.704Z,96181.00
2023-05-10T04:08:11.739Z,96181.00
2023-05-10T04:10:17.776Z,96187.13
2023-05-10T04:12:22.835Z,96183.66
2023-05-10T04:14:27.708Z,96182.91
2023-05-10T04:16:32.616Z,96178.66
2023-05-10T04:18:40.844Z,96184.00
2023-05-10T04:20:45.803Z,96186.00
2023-05-10T04:22:50.603Z,96190.56
2023-05-10T04:24:55.401Z,96183.34
2023-05-10T04:27:00.205Z,96192.91
2023-05-10T04:29:05.055Z,96189.13
2023-05-10T04:31:11.855Z,96186.47
2023-05-10T04:33:16.681Z,96188.81
2023-05-10T04:35:24.144Z,96189.91
2023-05-10T04:37:29.028Z,96197.13
2023-05-10T04:39:33.771Z,96193.22
2023-05-10T04:41:38.743Z,96192.31
2023-05-10T04:43:43.526Z,96187.66
2023-05-10T04:45:48.520Z,96190.97
2023-05-10T04:47:53.566Z,96195.50
2023-05-10T04:49:58.475Z,96197.41
2023-05-10T04:52:05.836Z,96196.16
2023-05-10T04:54:11.492Z,96195.38
2023-05-10T04:56:17.208Z,96194.63
2023-05-10T04:58:22.083Z,96199.63
2023-05-10T05:00:27.073Z,96204.16
2023-05-10T05:02:32.004Z,96200.06
2023-05-10T05:04:36.811Z,96203.81
2023-05-10T05:06:41.618Z,96197.41
2023-05-10T05:08:50.623Z,96204.94
2023-05-10T05:10:55.830Z,96200.38
2023-05-10T05:13:00.702Z,96207.63
2023-05-10T05:15:07.305Z,96209.47
2023-05-10T05:17:16.886Z,96210.13
2023-05-10T05:19:21.918Z,96211.25
2023-05-10T05:21:28.052Z,96219.88
2023-05-10T05:23:32.869Z,96208.78
2023-05-10T05:25:40.555Z,96221.00
2023-05-10T05:27:45.507Z,96220.66
2023-05-10T05:29:50.363Z,96221.44
2023-05-10T05:31:55.731Z,96229.44
2023-05-10T05:34:00.747Z,96239.75
2023-05-10T05:36:07.144Z,96234.09
2023-05-10T05:38:12.044Z,96238.78
2023-05-10T05:40:17.528Z,96243.94
2023-05-10T05:42:25.322Z,96242.94
2023-05-10T05:44:30.814Z,96238.19
2023-05-10T05:46:36.011Z,96244.44
2023-05-10T05:48:40.837Z,96249.88
2023-05-10T05:50:46.702Z,96250.03
2023-05-10T05:52:51.822Z,96258.13
2023-05-10T05:54:56.627Z,96251.38
2023-05-10T05:57:02.498Z,96253.72
2023-05-10T05:59:10.587Z,96264.47
2023-05-10T06:01:15.713Z,96263.38
2023-05-10T06:03:21.282Z,96266.53
2023-05-10T06:05:26.269Z,96270.72
2023-05-10T06:07:31.034Z,96266.63
2023-05-10T06:09:35.917Z,96277.72
2023-05-10T06:11:41.349Z,96273.63
2023-05-10T06:13:46.111Z,96272.88
2023-05-10T06:15:53.532Z,96277.09
2023-05-10T06:17:58.413Z,96275.97
2023-05-10T06:20:03.168Z,96284.78
2023-05-10T06:22:07.948Z,96286.63
2023-05-10T06:24:12.766Z,96291.19
2023-05-10T06:26:17.991Z,96298.44
2023-05-10T06:28:22.852Z,96293.44
2023-05-10T06:30:30.283Z,96292.97
2023-05-10T06:32:38.180Z,96306.63
2023-05-10T06:34:44.606Z,96303.50
2023-05-10T06:36:49.844Z,96311.38
2023-05-10T06:38:54.888Z,96306.03
2023-05-10T06:41:00.952Z,96315.13
2023-05-10T06:43:05.793Z,96308.69
2023-05-10T06:45:12.475Z,96304.16
2023-05-10T06:47:17.298Z,96318.25
2023-05-10T06:49:25.036Z,96314.81
2023-05-10T06:51:29.922Z,96318.69
2023-05-10T06:53:34.763Z,96319.19
2023-05-10T06:55:39.565Z,96319.63
2023-05-10T06:57:44.376Z,96325.41
2023-05-10T06:59:49.284Z,96324.28
2023-05-10T07:01:55.210Z,96328.19
2023-05-10T07:04:00.190Z,96331.31
2023-05-10T07:06:15.640Z,96328.31
2023-05-10T07:08:26.891Z,96335.97
2023-05-10T07:10:31.728Z,96335.38
2023-05-10T07:12:36.662Z,96336.91
2023-05-10T07:14:41.508Z,96335.81
2023-05-10T07:16:46.528Z,96338.94
2023-05-10T07:18:51.830Z,96334.41
2023-05-10T07:20:56.751Z,96341.28
2023-05-10T07:23:04.092Z,96341.28
2023-05-10T07:25:10.293Z,96350.84
2023-05-10T07:27:15.176Z,96354.31
2023-05-10T07:29:19.972Z,96344.41
2023-05-10T07:31:24.754Z,96350.97
2023-05-10T07:33:29.593Z,96354.41
2023-05-10T07:35:34.342Z,96353.00
2023-05-10T07:37:39.196Z,96359.88
2023-05-10T07:39:46.654Z,96358.75
2023-05-10T07:41:51.644Z,96353.56
2023-05-10T07:43:56.767Z,96366.56
2023-05-10T07:46:01.653Z,96359.00
2023-05-10T07:48:06.777Z,96361.03
2023-05-10T07:50:13.540Z,96366.50
2023-05-10T07:52:18.424Z,96366.16
2023-05-10T07:54:23.241Z,96362.06
2023-05-10T07:56:33.244Z,96364.41
2023-05-10T07:58:38.037Z,96373.63
2023-05-10T08:00:43.073Z,96367.19
2023-05-10T08:02:48.127Z,96376.44
2023-05-10T08:04:53.245Z,96376.09
2023-05-10T08:06:58.193Z,96377.66
2023-05-10T08:09:03.021Z,96372.44
2023-05-10T08:11:08.322Z,96367.53
2023-05-10T08:13:15.667Z,96374.44
2023-05-10T08:15:20.761Z,96371.91
2023-05-10T08:17:25.783Z,96372.78
2023-05-10T08:19:30.607Z,96374.81
2023-05-10T08:21:35.430Z,96379.50
2023-05-10T08:23:40.216Z,96374.25
2023-05-10T08:25:45.190Z,96371.41
2023-05-10T08:27:49.951Z,96373.06
2023-05-10T08:29:57.350Z,96376.97
2023-05-10T08:32:02.525Z,96380.19
2023-05-10T08:34:07.276Z,96376.06
2023-05-10T08:36:12.471Z,96386.44
2023-05-10T08:38:17.263Z,96379.66
2023-05-10T08:40:23.790Z,96370.56
2023-05-10T08:42:32.803Z,96377.13
2023-05-10T08:44:39.954Z,96389.81
2023-05-10T08:46:51.000Z,96383.34
2023-05-10T08:48:58.012Z,96378.13
2023-05-10T08:51:04.681Z,96375.69
2023-05-10T08:53:13.093Z,96375.13
2023-05-10T08:55:19.303Z,96378.13
2023-05-10T08:57:24.311Z,96378.13
2023-05-10T08:59:29.331Z,96376.56
2023-05-10T09:01:36.358Z,96386.44
2023-05-10T09:03:45.141Z,96381.75
2023-05-10T09:05:50.745Z,96385.47
2023-05-10T09:07:55.888Z,96386.00
2023-05-10T09:10:01.848Z,96383.84
2023-05-10T09:12:07.659Z,96388.28
2023-05-10T09:14:13.676Z,96376.34
2023-05-10T09:16:22.010Z,96375.50
2023-05-10T09:18:28.207Z,96377.00
2023-05-10T09:20:35.799Z,96379.31
2023-05-10T09:22:41.300Z,96371.19
2023-05-10T09:24:47.791Z,96373.75
2023-05-10T09:26:53.323Z,96375.13
2023-05-10T09:29:00.216Z,96381.53
2023-05-10T09:31:05.226Z,96376.78
2023-05-10T09:33:10.231Z,96370.19
2023-05-10T09:35:16.767Z,96373.22
2023-05-10T09:37:33.352Z,96376.69
2023-05-10T09:39:40.269Z,96372.03
2023-05-10T09:41:46.560Z,96370.81
2023-05-10T09:43:52.594Z,96365.66
2023-05-10T09:45:57.490Z,96373.50
2023-05-10T09:48:04.918Z,96373.66
2023-05-10T09:50:11.057Z,96374.50
2023-05-10T09:52:15.840Z,96375.63
2023-05-10T09:54:24.942Z,96376.34
2023-05-10T09:56:41.357Z,96372.44
2023-05-10T09:58:46.339Z,96388.03
2023-05-10T10:00:53.365Z,96388.69
2023-05-10T10:02:59.993Z,96395.03
2023-05-10T10:05:05.864Z,96400.16
2023-05-10T10:07:11.022Z,96400.72
2023-05-10T10:09:16.000Z,96400.81
2023-05-10T10:11:23.600Z,96400.88
2023-05-10T10:13:28.626Z,96408.66
2023-05-10T10:15:33.544Z,96405.72
2023-05-10T10:17:41.387Z,96407.38
2023-05-10T10:19:46.431Z,96405.97
2023-05-10T10:21:51.603Z,96408.38
2023-05-10T10:23:57.144Z,96403.53
2023-05-10T10:26:02.999Z,96402.91
2023-05-10T10:28:22.797Z,96405.72
2023-05-10T10:30:33.171Z,96409.31
2023-05-10T10:35:06.936Z,96407.47
2023-05-10T10:37:11.891Z,96408.50
2023-05-10T10:39:18.181Z,96406.84
2023-05-10T10:41:32.310Z,96409.00
2023-05-10T10:43:39.983Z,96402.00
2023-05-10T10:45:44.746Z,96403.78
2023-05-10T10:47:49.962Z,96396.78
2023-05-10T10:49:57.699Z,96392.75
2023-05-10T10:52:25.112Z,96393.78
2023-05-10T10:54:32.306Z,96389.88
2023-05-10T10:56:37.213Z,96389.09
2023-05-10T10:58:45.414Z,96379.53
2023-05-10T11:00:50.555Z,96383.75
2023-05-10T11:02:57.655Z,96376.16
2023-05-10T11:05:02.850Z,96378.50
2023-05-10T11:07:21.458Z,96377.38
2023-05-10T11:09:28.729Z,96369.03
2023-05-10T11:11:33.538Z,96369.47
2023-05-10T11:13:46.276Z,96366.47
2023-05-10T11:15:52.722Z,96364.56
2023-05-10T11:17:57.512Z,96369.56
2023-05-10T11:20:12.529Z,96357.75
2023-05-10T11:22:19.146Z,96362.44
2023-05-10T11:24:26.765Z,96355.63
2023-05-10T11:26:35.508Z,96352.59
2023-05-10T11:28:48.108Z,96357.97
2023-05-10T11:30:53.391Z,96359.06
2023-05-10T11:32:58.278Z,96362.84
2023-05-10T11:35:03.480Z,96365.19
2023-05-10T11:37:08.260Z,96364.53
2023-05-10T11:39:13.146Z,96365.03
2023-05-10T11:41:22.747Z,96358.25
2023-05-10T11:43:31.808Z,96367.38
2023-05-10T11:45:39.869Z,96363.50
2023-05-10T11:47:44.816Z,96375.75
2023-05-10T11:49:50.502Z,96371.19
2023-05-10T11:51:55.386Z,96373.88
2023-05-10T11:54:01.275Z,96369.28
2023-05-10T11:56:08.033Z,96375.09
2023-05-10T11:58:12.967Z,96371.28
2023-05-10T12:00:18.951Z,96373.59
2023-05-10T12:02:26.798Z,96366.47
2023-05-10T12:04:32.149Z,96370.78
2023-05-10T12:06:43.996Z,96367.41
2023-05-10T12:08:53.622Z,96368.31
2023-05-10T12:11:08.513Z,96366.84
2023-05-10T12:13:17.846Z,96360.81
2023-05-10T12:15:24.338Z,96361.22
2023-05-10T12:17:34.295Z,96364.25
2023-05-10T12:19:42.732Z,96367.72
2023-05-10T12:21:48.451Z,96367.03
2023-05-10T12:23:55.832Z,96368.25
2023-05-10T12:26:06.868Z,96367.47
2023-05-10T12:28:12.942Z,96366.78
2023-05-10T12:30:23.371Z,96367.56
2023-05-10T12:32:47.933Z,96375.94
2023-05-10T12:34:53.465Z,96374.38
2023-05-10T12:36:59.461Z,96374.81
2023-05-10T12:39:07.254Z,96379.38
2023-05-10T12:41:13.666Z,96384.75
2023-05-10T12:43:18.484Z,96382.06
2023-05-10T12:45:23.414Z,96389.31
2023-05-10T12:47:28.534Z,96393.13
2023-05-10T12:49:35.965Z,96391.53
2023-05-10T12:51:40.767Z,96394.91
2023-05-10T12:53:49.282Z,96398.69
2023-05-10T12:55:54.497Z,96393.69
2023-05-10T12:57:59.302Z,96401.63
2023-05-10T13:00:06.112Z,96396.19
2023-05-10T13:02:11.220Z,96401.78
2023-05-10T13:04:16.339Z,96399.00
2023-05-10T13:06:23.683Z,96405.38
2023-05-10T13:08:30.999Z,96405.72
2023-05-10T13:10:36.045Z,96407.19
2023-05-10T13:12:41.093Z,96405.63
2023-05-10T13:14:45.871Z,96402.50
2023-05-10T13:16:50.719Z,96406.66
2023-05-10T13:18:55.699Z,96403.19
2023-05-10T13:21:00.797Z,96402.75
2023-05-10T13:23:08.137Z,96402.31
2023-05-10T13:25:13.737Z,96404.53
2023-05-10T13:27:18.510Z,96399.88
2023-05-10T13:29:23.733Z,96405.03
2023-05-10T13:31:28.772Z,96406.38
2023-05-10T13:33:33.973Z,96400.47
2023-05-10T13:35:38.865Z,96405.38
2023-05-10T13:37:43.998Z,96411.06
2023-05-10T13:39:51.935Z,96409.88
2023-05-10T13:41:56.792Z,96410.19
2023-05-10T13:44:01.599Z,96408.81
2023-05-10T13:46:06.850Z,96409.41
2023-05-10T13:48:11.863Z,96406.19
2023-05-10T13:50:16.930Z,96405.19
2023-05-10T13:52:21.842Z,96400.81
2023-05-10T13:54:30.674Z,96402.97
2023-05-10T13:56:38.013Z,96408.09
2023-05-10T13:58:42.785Z,96408.31
2023-05-10T14:00:48.100Z,96408.53
2023-05-10T14:02:52.989Z,96408.75
2023-05-10T14:04:58.165Z,96406.31
2023-05-10T14:07:02.996Z,96407.28
2023-05-10T14:09:07.970Z,96407.50
2023-05-10T14:11:12.938Z,96404.72
2023-05-10T14:13:20.574Z,96409.94
2023-05-10T14:15:25.556Z,96409.38
2023-05-10T14:17:30.656Z,96407.69
2023-05-10T14:19:35.992Z,96411.69
2023-05-10T14:21:41.086Z,96410.31
2023-05-10T14:23:45.892Z,96413.97
2023-05-10T14:25:50.879Z,96413.88
2023-05-10T14:27:55.854Z,96415.28
2023-05-10T14:30:03.594Z,96417.53
2023-05-10T14:32:08.730Z,96412.19
2023-05-10T14:34:13.590Z,96422.72
2023-05-10T14:36:18.497Z,96423.38
2023-05-10T14:38:23.317Z,96424.81
2023-05-10T14:40:28.632Z,96428.16
2023-05-10T14:42:33.792Z,96430.22
2023-05-10T14:44:39.173Z,96423.53
2023-05-10T14:46:46.562Z,96423.19
2023-05-10T14:48:51.502Z,96423.81
2023-05-10T14:50:56.385Z,96421.47
2023-05-10T14:53:01.230Z,96428.59
2023-05-10T14:55:06.228Z,96421.84
2023-05-10T14:57:11.199Z,96433.84
2023-05-10T14:59:15.995Z,96427.25
2023-05-10T15:01:21.359Z,96431.81
2023-05-10T15:03:29.973Z,96425.72
2023-05-10T15:05:35.497Z,96437.16
2023-05-10T15:07:41.134Z,96427.13
2023-05-10T15:09:46.378Z,96435.44
2023-05-10T15:11:51.105Z,96434.63
2023-05-10T15:13:56.083Z,96436.53
2023-05-10T15:16:01.263Z,96438.44
2023-05-10T15:18:06.854Z,96438.75
2023-05-10T15:20:15.903Z,96439.06
2023-05-10T15:22:20.704Z,96445.50
2023-05-10T15:24:25.634Z,96439.84
2023-05-10T15:26:30.583Z,96450.50
2023-05-10T15:28:35.573Z,96443.50
2023-05-10T15:30:40.309Z,96448.06
2023-05-10T15:32:45.131Z,96445.38
2023-05-10T15:34:50.243Z,96449.28
2023-05-10T15:36:57.814Z,96455.41
2023-05-10T15:39:02.601Z,96453.50
2023-05-10T15:41:07.745Z,96448.81
2023-05-10T15:43:12.655Z,96449.91
2023-05-10T15:45:18.128Z,96447.25
2023-05-10T15:47:23.082Z,96449.91
2023-05-10T15:49:27.845Z,96459.81
2023-05-10T15:51:35.391Z,96451.81
2023-05-10T15:53:56.373Z,96460.13
2023-05-10T15:56:09.975Z,96464.53
2023-05-10T15:58:14.726Z,96465.19
2023-05-10T16:00:20.594Z,96465.69
2023-05-10T16:02:25.535Z,96460.25
2023-05-10T16:04:30.435Z,96463.06
2023-05-10T16:06:35.196Z,96471.06
2023-05-10T16:08:40.395Z,96474.53
2023-05-10T16:10:47.795Z,96485.19
2023-05-10T16:12:52.562Z,96487.97
2023-05-10T16:14:57.331Z,96483.09
2023-05-10T16:17:05.113Z,96484.34
2023-05-10T16:19:10.064Z,96482.94
2023-05-10T16:21:14.949Z,96488.72
2023-05-10T16:23:19.748Z,96491.38
2023-05-10T16:25:24.545Z,96482.59
2023-05-10T16:27:33.674Z,96487.50
2023-05-10T16:29:38.496Z,96493.47
2023-05-10T16:31:43.273Z,96491.91
2023-05-10T16:33:48.229Z,96493.31
2023-05-10T16:35:53.226Z,96489.41
2023-05-10T16:37:58.138Z,96496.63
2023-05-10T16:40:03.251Z,96493.19
2023-05-10T16:42:08.309Z,96496.47
2023-05-10T16:44:15.727Z,96500.09
2023-05-10T16:46:20.548Z,96493.06
2023-05-10T16:48:25.281Z,96497.16
2023-05-10T16:50:30.125Z,96499.38
2023-05-10T16:52:35.512Z,96502.03
2023-05-10T16:54:40.533Z,96508.44
2023-05-10T16:56:45.412Z,96512.22
2023-05-10T16:58:50.762Z,96518.97
2023-05-10T17:00:58.174Z,96513.47
2023-05-10T17:03:02.976Z,96520.72
2023-05-10T17:05:08.777Z,96516.47
2023-05-10T17:07:13.824Z,96525.56
2023-05-10T17:09:20.381Z,96521.97
2023-05-10T17:11:25.121Z,96519.63
2023-05-10T17:13:29.840Z,96522.63
2023-05-10T17:15:34.655Z,96525.28
2023-05-10T17:17:42.148Z,96518.53
2023-05-10T17:19:48.183Z,96525.00
2023-05-10T17:21:53.127Z,96528.75
2023-05-10T17:23:58.047Z,96528.75
2023-05-10T17:26:03.017Z,96529.38
2023-05-10T17:28:07.966Z,96537.38
2023-05-10T17:30:13.670Z,96530.94
2023-05-10T17:32:18.497Z,96534.06
2023-05-10T17:34:26.198Z,96534.06
2023-05-10T17:36:31.155Z,96533.31
2023-05-10T17:38:36.112Z,96547.38
2023-05-10T17:40:43.311Z,96548.47
2023-05-10T17:42:48.451Z,96548.97
2023-05-10T17:44:53.228Z,96549.28
2023-05-10T17:46:57.968Z,96558.34
2023-05-10T17:49:02.950Z,96554.91
2023-05-10T17:51:11.483Z,96560.56
2023-05-10T17:53:16.279Z,96553.97
2023-05-10T17:55:21.089Z,96557.72
2023-05-10T17:57:26.358Z,96555.38
2023-05-10T17:59:31.240Z,96561.81
2023-05-10T18:01:36.156Z,96563.25
2023-05-10T18:03:40.940Z,96564.97
2023-05-10T18:05:46.122Z,96561.81
2023-05-10T18:07:53.544Z,96561.66
2023-05-10T18:09:58.451Z,96568.06
2023-05-10T18:12:05.144Z,96568.38
2023-05-10T18:14:10.429Z,96564.13
2023-05-10T18:16:15.528Z,96569.31
2023-05-10T18:18:20.395Z,96575.28
2023-05-10T18:20:25.427Z,96571.81
2023-05-10T18:22:30.310Z,96569.78
2023-05-10T18:24:39.596Z,96574.34
2023-05-10T18:26:46.645Z,96582.47
2023-05-10T18:28:51.605Z,96577.63
2023-05-10T18:30:56.396Z,96572.13
2023-05-10T18:33:01.480Z,96573.88
2023-05-10T18:35:07.075Z,96587.47
2023-05-10T18:37:12.546Z,96588.09
2023-05-10T18:39:18.579Z,96578.69
2023-05-10T18:41:26.999Z,96577.75
2023-05-10T18:43:31.781Z,96590.59
2023-05-10T18:45:36.653Z,96597.00
2023-05-10T18:47:41.641Z,96595.13
2023-05-10T18:49:46.712Z,96593.25
2023-05-10T18:51:51.667Z,96590.09
2023-05-10T18:53:56.485Z,96597.16
2023-05-10T18:56:02.017Z,96600.28
2023-05-10T18:58:09.579Z,96591.84
2023-05-10T19:00:16.643Z,96592.94
2023-05-10T19:02:21.666Z,96595.13
2023-05-10T19:04:26.699Z,96597.28
2023-05-10T19:06:31.959Z,96601.03
2023-05-10T19:08:36.715Z,96590.25
2023-05-10T19:10:41.446Z,96595.69
2023-05-10T19:12:46.254Z,96590.53
2023-05-10T19:14:53.886Z,96595.22
2023-05-10T19:16:58.806Z,96597.09
2023-05-10T19:19:03.935Z,96595.69
2023-05-10T19:21:10.989Z,96599.91
2023-05-10T19:23:15.670Z,96606.19
2023-05-10T19:25:21.719Z,96606.66
2023-05-10T19:27:26.486Z,96605.25
2023-05-10T19:29:31.583Z,96604.63
2023-05-10T19:31:39.533Z,96614.19
2023-05-10T19:33:44.330Z,96606.34
2023-05-10T19:35:49.452Z,96609.50
2023-05-10T19:37:54.701Z,96608.13
2023-05-10T19:39:59.653Z,96617.31
2023-05-10T19:42:05.810Z,96612.81
2023-05-10T19:44:10.649Z,96612.00
2023-05-10T19:46:17.825Z,96618.44
2023-05-10T19:48:26.745Z,96614.97
2023-05-10T19:50:31.624Z,96614.97
2023-05-10T19:52:36.542Z,96613.13
2023-05-10T19:54:41.652Z,96607.00
2023-05-10T19:56:46.434Z,96613.91
2023-05-10T19:58:51.220Z,96609.66
2023-05-10T20:00:55.938Z,96614.22
2023-05-10T20:03:01.187Z,96611.84
2023-05-10T20:05:09.844Z,96617.50
2023-05-10T20:07:14.631Z,96619.38
2023-05-10T20:09:19.513Z,96620.47
2023-05-10T20:11:24.662Z,96630.28
2023-05-10T20:13:29.497Z,96625.78
2023-05-10T20:15:34.459Z,96630.78
2023-05-10T20:17:39.826Z,96623.59
2023-05-10T20:19:45.244Z,96630.47
2023-05-10T20:21:52.671Z,96629.69
2023-05-10T20:23:57.654Z,96632.06
2023-05-10T20:26:02.890Z,96626.72
2023-05-10T20:28:08.707Z,96622.97
2023-05-10T20:30:14.604Z,96622.97
2023-05-10T20:32:19.699Z,96624.06
2023-05-10T20:34:24.393Z,96622.50
2023-05-10T20:36:29.608Z,96627.03
2023-05-10T20:38:37.028Z,96630.78
2023-05-10T20:40:41.807Z,96628.13
2023-05-10T20:42:46.666Z,96631.56
2023-05-10T20:44:51.797Z,96628.91
2023-05-10T20:46:56.693Z,96624.69
2023-05-10T20:49:01.558Z,96628.44
2023-05-10T20:51:06.538Z,96621.84
2023-05-10T20:53:11.403Z,96628.56
2023-05-10T20:55:19.075Z,96623.41
2023-05-10T20:57:24.140Z,96621.81
2023-05-10T20:59:28.980Z,96627.16
2023-05-10T21:01:33.969Z,96626.69
2023-05-10T21:03:38.777Z,96617.13
2023-05-10T21:05:43.689Z,96622.44
2023-05-10T21:07:49.534Z,96614.00
2023-05-10T21:09:54.286Z,96618.53
2023-05-10T21:12:03.555Z,96611.63
2023-05-10T21:14:09.874Z,96607.44
2023-05-10T21:16:14.598Z,96616.19
2023-05-10T21:18:19.667Z,96614.59
2023-05-10T21:20:25.436Z,96611.16
2023-05-10T21:22:30.489Z,96605.84
2023-05-10T21:24:35.344Z,96607.72
2023-05-10T21:26:40.392Z,96605.38
2023-05-10T21:28:48.900Z,96604.59
2023-05-10T21:30:54.306Z,96605.69
2023-05-10T21:33:00.105Z,96602.22
2023-05-10T21:35:05.603Z,96605.19
2023-05-10T21:37:10.357Z,96607.88
2023-05-10T21:39:15.366Z,96597.84
2023-05-10T21:41:20.491Z,96601.91
2023-05-10T21:43:25.305Z,96600.34
2023-05-10T21:45:33.416Z,96605.66
2023-05-10T21:47:38.407Z,96601.44
2023-05-10T21:49:43.490Z,96600.94
2023-05-10T21:51:48.901Z,96605.75
2023-05-10T21:53:53.653Z,96600.75
2023-05-10T21:55:59.437Z,96600.59
2023-05-10T21:58:04.277Z,96599.63
2023-05-10T22:00:11.838Z,96595.72
2023-05-10T22:02:20.056Z,96597.91
2023-05-10T22:04:24.798Z,96602.72
2023-05-10T22:06:29.577Z,96596.94
2023-05-10T22:08:34.408Z,96594.59
2023-05-10T22:10:39.397Z,96593.03
2023-05-10T22:12:44.225Z,96600.53
2023-05-10T22:14:53.934Z,96599.72
2023-05-10T22:17:04.402Z,96590.47
2023-05-10T22:19:11.741Z,96598.75
2023-05-10T22:21:16.647Z,96594.56
2023-05-10T22:23:21.677Z,96600.94
2023-05-10T22:25:26.450Z,96598.59
2023-05-10T22:27:31.286Z,96597.81
2023-05-10T22:29:36.410Z,96607.34
2023-05-10T22:31:41.321Z,96604.69
2023-05-10T22:33:46.444Z,96605.78
2023-05-10T22:35:53.875Z,96609.22
2023-05-10T22:37:58.600Z,96608.44
2023-05-10T22:40:04.150Z,96603.44
2023-05-10T22:42:09.022Z,96606.09
2023-05-10T22:44:13.723Z,96600.00
2023-05-10T22:46:18.866Z,96603.72
2023-05-10T22:48:23.750Z,96604.03
2023-05-10T22:50:29.426Z,96605.13
2023-05-10T22:52:38.989Z,96595.59
2023-05-10T22:54:44.454Z,96600.13
2023-05-10T22:56:49.295Z,96591.34
2023-05-10T22:58:54.452Z,96595.91
2023-05-10T23:00:59.276Z,96596.22
2023-05-10T23:03:04.081Z,96597.28
2023-05-10T23:05:10.767Z,96596.31
2023-05-10T23:07:15.808Z,96592.44
2023-05-10T23:09:23.163Z,96595.38
2023-05-10T23:11:28.030Z,96594.28
2023-05-10T23:13:32.797Z,96594.59
2023-05-10T23:15:38.197Z,96588.97
2023-05-10T23:17:43.006Z,96595.09
2023-05-10T23:19:48.099Z,96598.81
2023-05-10T23:21:52.896Z,96600.69
2023-05-10T23:23:57.801Z,96598.31
2023-05-10T23:26:05.464Z,96600.34
2023-05-10T23:28:10.320Z,96603.41
2023-05-10T23:30:15.744Z,96604.94
2023-05-10T23:32:20.665Z,96602.69
2023-05-10T23:34:25.411Z,96598.75
2023-05-10T23:36:31.972Z,96597.53
2023-05-10T23:38:36.764Z,96599.97
2023-05-10T23:40:41.512Z,96592.94
2023-05-10T23:42:48.953Z,96596.19
2023-05-10T23:44:53.747Z,96581.47
2023-05-10T23:46:58.725Z,96586.28
2023-05-10T23:49:03.554Z,96592.97
2023-05-10T23:51:08.443Z,96591.41
2023-05-10T23:53:13.299Z,96584.03
2023-05-10T23:55:18.176Z,96588.84
2023-05-10T23:57:23.081Z,96591.00
2023-05-10T23:59:30.897Z,96586.78
